Terminal Aerodrome Forecast
Issued by NWS

Home | Current Version | Previous Version | Text Only | Print | Product List | Glossary On
Versions: 1 2 3 4 5 6 7 8 9 10 11 12 13 14 15 16 17 18 19 20 21 22 23 24 25 26 27 28 29
000
FTUS43 KDLH 200400 AAC
TAFHIB
TAF AMD
KHIB 200457Z 2005/2024 31010KT P6SM VCSH SCT016 BKN040
      TEMPO 2005/2008 31012G20KT 2SM -SHSN BKN016
     FM200900 31011KT P6SM BKN040
      TEMPO 2009/2013 SCT040
     FM202200 31007KT P6SM SCT035=

USA.gov is the U.S. government's official web portal to all federal, state and local government web resources and services.